Time;durP1;ratioP1;P1;durP2;ratioP2;P2;SDS_P1;SDS_P2;PMS_P1;PMS_P2;Temp;Humidity;BMP_temperature;BMP_pressure;BME280_temperature;BME280_humidity;BME280_pressure;Samples;Min_cycle;Max_cycle;Signal;HPM_P1;HPM_P2
2022/03/12 00:00:12;;;;;;;11.13;7.18;;;;;;;6.71;33.72;100048.94;1087667;54;20030;-78
2022/03/12 00:01:16;;;;;;;11.18;7.38;;;;;;;6.74;33.73;100051.38;1087584;54;20039;-79
2022/03/12 00:02:18;;;;;;;14.57;8.32;;;;;;;6.70;33.63;100057.88;1087698;54;20034;-79
2022/03/12 00:03:22;;;;;;;11.38;6.82;;;;;;;6.72;33.51;100056.78;1087717;54;20023;-79
2022/03/12 00:04:24;;;;;;;13.27;7.50;;;;;;;6.78;33.42;100055.47;1087670;54;20034;-79
2022/03/12 00:05:30;;;;;;;11.20;7.25;;;;;;;6.72;33.75;100054.13;1087622;54;20027;-78
2022/03/12 00:06:34;;;;;;;10.45;7.20;;;;;;;6.79;33.72;100056.31;1087629;54;20041;-78
2022/03/12 00:07:42;;;;;;;10.68;7.55;;;;;;;6.78;33.58;100060.78;1087699;54;20038;-78
2022/03/12 00:08:47;;;;;;;9.93;6.35;;;;;;;6.80;33.42;100060.69;1087662;54;20078;-79
2022/03/12 00:09:50;;;;;;;12.05;7.47;;;;;;;6.83;33.72;100055.09;1087685;54;20062;-79
2022/03/12 00:10:55;;;;;;;11.30;7.45;;;;;;;6.83;33.63;100057.75;1087393;54;20749;-79
2022/03/12 00:12:00;;;;;;;11.43;6.90;;;;;;;6.80;33.40;100058.84;1087177;54;20027;-79
2022/03/12 00:13:05;;;;;;;10.38;7.28;;;;;;;6.72;33.54;100059.44;1087742;54;20030;-79
2022/03/12 00:14:12;;;;;;;13.98;7.68;;;;;;;6.74;33.34;100063.78;1087710;54;20041;-79
2022/03/12 00:15:18;;;;;;;11.23;8.00;;;;;;;6.72;33.51;100069.25;1087751;54;20019;-79
2022/03/12 00:16:26;;;;;;;11.77;7.68;;;;;;;6.64;33.47;100067.16;1087769;54;20062;-79
2022/03/12 00:17:32;;;;;;;10.52;7.30;;;;;;;6.63;33.65;100070.78;1087884;54;20034;-80
2022/03/12 00:18:38;;;;;;;11.05;7.88;;;;;;;6.60;33.73;100072.84;1087754;54;20670;-80
2022/03/12 00:19:41;;;;;;;11.23;7.05;;;;;;;6.61;33.58;100070.09;1087842;54;20091;-80
2022/03/12 00:20:47;;;;;;;11.93;7.47;;;;;;;6.55;33.79;100070.53;1087760;54;20027;-79
2022/03/12 00:21:52;;;;;;;10.27;7.07;;;;;;;6.56;33.83;100074.88;1087724;54;20029;-79
2022/03/12 00:22:56;;;;;;;10.32;7.03;;;;;;;6.55;33.77;100083.81;1089718;47;20014;-79
2022/03/12 00:24:00;;;;;;;11.13;7.47;;;;;;;6.60;33.63;100073.69;1087709;54;20034;-80
2022/03/12 00:25:02;;;;;;;11.25;7.28;;;;;;;6.61;33.58;100080.72;1087586;54;20030;-79
2022/03/12 00:26:07;;;;;;;12.77;7.80;;;;;;;6.62;33.59;100081.53;1092726;39;20633;-79
2022/03/12 00:27:09;;;;;;;9.63;6.80;;;;;;;6.65;33.81;100082.16;1088156;47;20651;-80
2022/03/12 00:28:15;;;;;;;10.02;6.60;;;;;;;6.63;33.80;100080.56;1087379;54;20085;-79
2022/03/12 00:29:20;;;;;;;11.32;7.07;;;;;;;6.58;33.75;100080.94;1087464;54;20094;-79
2022/03/12 00:30:26;;;;;;;10.75;7.28;;;;;;;6.57;33.73;100079.25;1087620;54;20034;-79
2022/03/12 00:31:28;;;;;;;11.90;8.02;;;;;;;6.53;33.85;100081.28;1087474;54;20046;-79
2022/03/12 00:32:35;;;;;;;13.05;7.45;;;;;;;6.48;34.02;100079.94;1087457;54;20038;-79
2022/03/12 00:33:40;;;;;;;11.00;7.95;;;;;;;6.47;34.09;100083.56;1087626;54;20643;-79
2022/03/12 00:34:41;;;;;;;11.10;7.68;;;;;;;6.45;34.20;100086.34;1088009;39;20511;-80
2022/03/12 00:35:46;;;;;;;10.32;7.65;;;;;;;6.45;34.37;100080.16;1087618;54;20658;-79
2022/03/12 00:36:48;;;;;;;14.57;8.10;;;;;;;6.43;34.10;100082.94;1087602;54;20049;-79
2022/03/12 00:37:52;;;;;;;12.45;7.50;;;;;;;6.38;34.25;100080.66;1087573;54;20033;-78
2022/03/12 00:38:54;;;;;;;11.32;8.23;;;;;;;6.37;34.42;100089.56;1087610;54;20034;-79
2022/03/12 00:39:58;;;;;;;12.95;7.82;;;;;;;6.36;34.34;100089.69;1089084;39;20437;-79
2022/03/12 00:41:04;;;;;;;11.20;7.40;;;;;;;6.33;34.51;100092.56;1087574;54;20030;-78
2022/03/12 00:42:09;;;;;;;12.85;8.25;;;;;;;6.28;34.63;100086.78;1087594;54;20061;-79
2022/03/12 00:43:12;;;;;;;12.25;7.85;;;;;;;6.33;34.64;100088.09;1087599;54;20031;-79
2022/03/12 00:44:18;;;;;;;13.93;7.60;;;;;;;6.34;34.30;100084.50;1087582;54;20635;-79
2022/03/12 00:45:23;;;;;;;10.15;7.28;;;;;;;6.30;34.65;100076.88;1087572;54;20030;-81
2022/03/12 00:46:28;;;;;;;11.80;7.10;;;;;;;6.35;34.58;100083.53;1087719;54;20099;-80
2022/03/12 00:47:29;;;;;;;9.95;6.72;;;;;;;6.36;34.35;100071.94;1088077;54;20283;-80
2022/03/12 00:48:34;;;;;;;9.90;7.10;;;;;;;6.35;34.51;100080.03;1088100;54;20035;-78
2022/03/12 00:49:35;;;;;;;10.60;7.53;;;;;;;6.33;34.25;100077.47;1088064;54;20034;-79
2022/03/12 00:50:39;;;;;;;14.05;7.60;;;;;;;6.38;34.07;100072.69;1088054;54;20042;-79
2022/03/12 00:51:42;;;;;;;11.13;6.80;;;;;;;6.36;34.40;100073.78;1087943;54;20035;-79
2022/03/12 00:52:46;;;;;;;13.77;7.53;;;;;;;6.36;34.40;100074.59;1088043;54;20034;-79
2022/03/12 00:53:47;;;;;;;11.57;8.30;;;;;;;6.33;34.28;100082.78;1088078;54;20034;-79
2022/03/12 00:54:52;;;;;;;11.45;7.55;;;;;;;6.35;34.24;100075.56;1088040;54;20026;-79
2022/03/12 00:55:53;;;;;;;12.43;7.60;;;;;;;6.30;34.11;100076.88;1088029;54;20034;-79
2022/03/12 00:56:57;;;;;;;13.90;7.68;;;;;;;6.27;34.52;100080.63;1087923;54;20034;-79
2022/03/12 00:57:59;;;;;;;11.45;6.72;;;;;;;6.21;34.57;100073.94;1088011;54;20041;-79
2022/03/12 00:59:03;;;;;;;13.77;7.53;;;;;;;6.23;34.56;100076.50;1088030;54;20041;-80
2022/03/12 01:00:13;;;;;;;10.43;7.10;;;;;;;6.25;34.34;100074.56;1088005;54;20038;-79
2022/03/12 01:01:21;;;;;;;11.07;7.30;;;;;;;6.30;34.31;100076.88;1087836;54;20034;-79
2022/03/12 01:02:23;;;;;;;11.00;6.80;;;;;;;6.26;33.93;100078.91;1087675;54;20053;-80
2022/03/12 01:03:27;;;;;;;9.88;6.97;;;;;;;6.28;34.19;100081.47;1087919;54;20046;-79
2022/03/12 01:04:29;;;;;;;12.27;7.03;;;;;;;6.28;34.19;100079.66;1088004;54;20059;-79
2022/03/12 01:05:54;;;;;;;9.38;6.40;;;;;;;6.35;34.10;100082.69;1087965;54;20027;-79
2022/03/12 01:06:59;;;;;;;11.73;7.53;;;;;;;6.35;33.96;100090.66;1087918;54;20035;-79
2022/03/12 01:08:00;;;;;;;12.30;7.68;;;;;;;6.31;34.31;100087.41;1088070;54;20038;-82
2022/03/12 01:09:04;;;;;;;9.57;6.55;;;;;;;6.27;34.74;100079.78;1087986;54;20773;-79
2022/03/12 01:10:07;;;;;;;11.82;7.50;;;;;;;6.19;34.35;100080.34;1089929;39;20661;-82
2022/03/12 01:11:12;;;;;;;12.00;7.10;;;;;;;6.21;34.74;100092.53;1087909;54;20038;-80
2022/03/12 01:12:14;;;;;;;10.80;7.72;;;;;;;6.17;34.63;100085.78;1087959;54;20038;-79
2022/03/12 01:13:18;;;;;;;11.98;7.40;;;;;;;6.19;34.79;100090.97;1087880;54;20030;-78
2022/03/12 01:14:20;;;;;;;9.85;6.97;;;;;;;6.21;34.64;100094.38;1087882;54;20050;-78
2022/03/12 01:15:24;;;;;;;11.52;7.00;;;;;;;6.21;34.50;100087.22;1087895;54;20038;-79
2022/03/12 01:16:32;;;;;;;10.82;6.22;;;;;;;6.20;34.60;100085.53;1089286;39;20737;-79
2022/03/12 01:17:34;;;;;;;12.13;6.88;;;;;;;6.17;34.51;100088.44;1091334;39;20836;-79
2022/03/12 01:18:40;;;;;;;11.43;6.85;;;;;;;6.12;34.72;100087.91;1090491;39;20276;-79
2022/03/12 01:19:42;;;;;;;14.07;7.07;;;;;;;6.12;34.58;100084.44;1087719;54;20050;-80
2022/03/12 01:20:47;;;;;;;9.65;6.93;;;;;;;6.03;34.88;100088.59;1087942;54;20031;-79
2022/03/12 01:21:48;;;;;;;11.10;7.10;;;;;;;5.98;34.94;100083.63;1087875;54;20038;-79
2022/03/12 01:22:53;;;;;;;11.48;7.57;;;;;;;5.95;34.97;100083.88;1087954;54;20026;-78
2022/03/12 01:23:54;;;;;;;13.88;8.45;;;;;;;5.93;34.89;100083.97;1087917;54;20030;-78
2022/03/12 01:24:58;;;;;;;11.68;7.32;;;;;;;5.89;34.87;100084.31;1090541;39;20690;-79
2022/03/12 01:26:00;;;;;;;13.85;8.70;;;;;;;5.82;35.11;100075.09;1088938;46;20034;-79
2022/03/12 01:27:05;;;;;;;11.80;7.82;;;;;;;5.80;35.19;100082.31;1087960;54;20041;-79
2022/03/12 01:28:07;;;;;;;14.77;8.32;;;;;;;5.80;35.34;100079.66;1087942;54;20035;-79
2022/03/12 01:29:12;;;;;;;13.43;7.50;;;;;;;5.82;35.23;100077.75;1087929;54;20037;-79
2022/03/12 01:30:13;;;;;;;12.00;7.78;;;;;;;5.82;35.03;100083.06;1088278;54;20055;-79
2022/03/12 01:31:18;;;;;;;13.18;8.13;;;;;;;5.82;35.03;100077.75;1088290;54;20053;-79
2022/03/12 01:32:24;;;;;;;11.32;7.60;;;;;;;5.83;35.25;100080.28;1090731;46;20035;-78
2022/03/12 01:33:28;;;;;;;12.70;7.65;;;;;;;5.80;35.25;100075.22;1090110;46;20094;-79
2022/03/12 01:34:32;;;;;;;11.98;7.85;;;;;;;5.79;35.07;100078.84;1089407;46;20022;-80
2022/03/12 01:35:36;;;;;;;12.02;8.10;;;;;;;5.78;34.86;100077.97;1090495;46;20030;-80
2022/03/12 01:36:38;;;;;;;13.07;8.30;;;;;;;5.75;35.17;100074.69;1088059;54;20030;-79
2022/03/12 01:37:42;;;;;;;13.18;7.70;;;;;;;5.73;35.25;100080.13;1090941;46;20019;-79
2022/03/12 01:38:52;;;;;;;13.73;7.70;;;;;;;5.70;35.21;100083.00;1088748;39;20590;-79
2022/03/12 01:39:54;;;;;;;11.27;7.32;;;;;;;5.72;34.94;100070.47;1095685;39;20279;-80
2022/03/12 01:41:06;;;;;;;12.02;7.93;;;;;;;5.72;35.04;100081.09;1088064;54;20083;-79
2022/03/12 01:42:09;;;;;;;11.65;7.95;;;;;;;5.71;35.31;100078.56;1089358;46;20038;-79
2022/03/12 01:43:13;;;;;;;13.13;7.13;;;;;;;5.73;34.82;100085.44;1088553;46;20018;-80
2022/03/12 01:44:15;;;;;;;11.48;7.47;;;;;;;5.76;35.08;100079.06;1087993;54;20034;-79
2022/03/12 01:45:26;;;;;;;10.93;7.57;;;;;;;5.79;34.89;100081.50;1087829;54;20042;-79
2022/03/12 01:46:31;;;;;;;11.05;7.53;;;;;;;5.75;35.16;100083.53;1087854;54;20639;-80
2022/03/12 01:47:38;;;;;;;15.57;7.13;;;;;;;5.77;35.06;100081.59;1087865;54;20041;-80
2022/03/12 01:48:48;;;;;;;11.65;7.63;;;;;;;5.76;35.01;100079.88;1087904;54;20046;-79
2022/03/12 01:49:53;;;;;;;11.48;6.97;;;;;;;5.80;34.98;100084.97;1087835;54;20066;-79
2022/03/12 01:50:57;;;;;;;12.23;7.70;;;;;;;5.78;34.87;100080.63;1087891;54;20023;-79
2022/03/12 01:51:59;;;;;;;10.07;7.32;;;;;;;5.82;34.93;100080.41;1087443;54;20058;-79
2022/03/12 01:53:06;;;;;;;11.25;7.53;;;;;;;5.82;34.95;100083.91;1087724;54;20025;-79
2022/03/12 01:54:08;;;;;;;12.00;7.43;;;;;;;5.82;34.85;100083.06;1087950;54;20054;-79
2022/03/12 01:55:13;;;;;;;14.57;7.38;;;;;;;5.84;34.71;100081.97;1087900;54;20037;-79
2022/03/12 01:56:15;;;;;;;10.88;7.35;;;;;;;5.88;34.70;100085.25;1087708;54;20018;-79
2022/03/12 01:57:19;;;;;;;13.13;7.32;;;;;;;5.84;34.73;100087.28;1089230;39;20512;-79
2022/03/12 01:58:21;;;;;;;10.05;6.72;;;;;;;5.89;34.78;100090.47;1087868;54;20030;-79
2022/03/12 01:59:25;;;;;;;9.77;6.85;;;;;;;5.94;34.71;100084.81;1087911;54;20037;-79
2022/03/12 02:00:27;;;;;;;9.68;6.78;;;;;;;5.97;34.50;100097.84;1087880;54;20066;-79
2022/03/12 02:01:32;;;;;;;9.43;6.45;;;;;;;5.95;34.50;100091.81;1087805;54;20022;-79
2022/03/12 02:02:37;;;;;;;10.18;6.70;;;;;;;5.96;34.52;100095.31;1087906;54;20037;-79
2022/03/12 02:03:42;;;;;;;9.20;6.20;;;;;;;6.02;34.40;100085.13;1087923;54;20039;-79
2022/03/12 02:04:50;;;;;;;10.27;6.40;;;;;;;6.05;34.60;100090.19;1088040;54;20035;-79
2022/03/12 02:05:54;;;;;;;11.10;6.03;;;;;;;6.07;34.53;100084.78;1088604;46;20034;-79
2022/03/12 02:07:04;;;;;;;10.82;6.68;;;;;;;6.11;34.39;100082.75;1088208;54;20046;-79
2022/03/12 02:08:12;;;;;;;9.25;6.32;;;;;;;6.15;34.36;100084.19;1088116;54;20031;-79
2022/03/12 02:09:15;;;;;;;8.75;5.82;;;;;;;6.18;34.42;100082.16;1087865;54;20034;-80
2022/03/12 02:10:22;;;;;;;8.75;5.60;;;;;;;6.20;34.54;100095.31;1088180;46;20041;-78
2022/03/12 02:11:27;;;;;;;8.95;5.80;;;;;;;6.22;34.66;100096.88;1087729;54;20038;-79
2022/03/12 02:12:31;;;;;;;9.68;5.80;;;;;;;6.23;34.55;100087.97;1087903;54;20034;-79
2022/03/12 02:13:34;;;;;;;9.50;6.28;;;;;;;6.26;34.72;100094.84;1087925;54;20042;-80
2022/03/12 02:14:38;;;;;;;8.25;5.93;;;;;;;6.27;34.94;100090.41;1087904;54;20034;-79
2022/03/12 02:15:41;;;;;;;9.18;6.03;;;;;;;6.29;34.92;100091.97;1087881;54;20034;-79
2022/03/12 02:16:48;;;;;;;9.88;5.72;;;;;;;6.29;35.25;100086.66;1087810;54;20034;-79
2022/03/12 02:17:52;;;;;;;8.02;5.53;;;;;;;6.28;35.20;100082.31;1087821;54;20022;-79
2022/03/12 02:18:57;;;;;;;8.43;5.80;;;;;;;6.30;35.12;100083.03;1087910;54;20035;-79
2022/03/12 02:19:59;;;;;;;8.95;5.93;;;;;;;6.24;35.33;100078.19;1087815;54;20030;-79
2022/03/12 02:21:03;;;;;;;9.43;6.38;;;;;;;6.17;35.38;100088.44;1087784;54;20034;-79
2022/03/12 02:22:07;;;;;;;9.75;6.82;;;;;;;6.06;35.18;100086.56;1087746;54;20065;-79
2022/03/12 02:23:12;;;;;;;11.13;7.20;;;;;;;5.98;35.45;100083.63;1087750;54;20733;-79
2022/03/12 02:24:18;;;;;;;10.95;7.05;;;;;;;5.91;35.40;100079.72;1087895;54;20022;-79
2022/03/12 02:25:30;;;;;;;9.63;6.43;;;;;;;5.96;35.45;100090.00;1087483;54;20720;-79
2022/03/12 02:26:33;;;;;;;12.18;7.43;;;;;;;5.95;35.24;100086.50;1087605;54;20087;-79
2022/03/12 02:27:37;;;;;;;9.80;6.07;;;;;;;6.02;35.17;100090.44;1087843;54;20580;-79
2022/03/12 02:28:38;;;;;;;10.52;7.00;;;;;;;5.97;35.29;100089.88;1096520;39;20733;-79
2022/03/12 02:29:44;;;;;;;12.68;7.20;;;;;;;5.94;35.28;100092.78;1088483;46;20025;-78
2022/03/12 02:30:51;;;;;;;9.77;6.20;;;;;;;5.89;35.49;100089.59;1087939;54;20019;-79
2022/03/12 02:31:58;;;;;;;14.18;7.80;;;;;;;5.83;35.53;100082.09;1087864;54;20044;-79
2022/03/12 02:33:01;;;;;;;11.98;7.20;;;;;;;5.83;35.38;100085.59;1089854;39;20499;-80
2022/03/12 02:34:08;;;;;;;9.45;6.63;;;;;;;5.87;35.52;100076.47;1087856;54;20041;-79
2022/03/12 02:35:10;;;;;;;10.90;7.28;;;;;;;5.87;35.57;100092.38;1087897;54;20042;-79
2022/03/12 02:36:19;;;;;;;10.15;6.13;;;;;;;5.90;35.47;100075.38;1087792;54;21109;-79
2022/03/12 02:37:33;;;;;;;9.63;6.43;;;;;;;5.90;35.38;100080.69;1087877;54;20034;-78
2022/03/12 02:38:35;;;;;;;13.93;6.75;;;;;;;5.80;35.78;100084.97;1087855;54;20019;-79
2022/03/12 02:39:42;;;;;;;11.02;7.30;;;;;;;5.80;35.77;100085.84;1087918;54;20022;-78
2022/03/12 02:40:45;;;;;;;13.75;7.35;;;;;;;5.73;35.88;100090.75;1087746;54;20042;-79
2022/03/12 02:42:57;;;;;;;9.70;6.85;;;;;;;5.76;35.88;100093.16;1088342;54;20027;-83
2022/03/12 02:44:07;;;;;;;10.15;6.40;;;;;;;5.79;36.03;100100.06;1088515;54;20086;-84
2022/03/12 02:45:23;;;;;;;12.35;6.85;;;;;;;5.81;35.86;100091.97;1088190;54;20038;-84
2022/03/12 02:46:28;;;;;;;9.85;6.38;;;;;;;5.83;35.61;100101.50;1088113;54;20015;-82
2022/03/12 02:47:33;;;;;;;10.93;6.85;;;;;;;5.80;35.83;100106.19;1088237;54;20019;-84
2022/03/12 02:48:35;;;;;;;10.77;6.20;;;;;;;5.76;35.83;100106.41;1088043;54;20103;-81
2022/03/12 02:49:42;;;;;;;11.40;7.35;;;;;;;5.75;35.99;100101.22;1088444;54;21033;-82
2022/03/12 02:50:45;;;;;;;10.50;6.65;;;;;;;5.74;35.93;100103.06;1088356;54;20042;-83
2022/03/12 02:51:50;;;;;;;13.43;7.57;;;;;;;5.77;35.60;100107.28;1088380;54;20014;-83
2022/03/12 02:52:52;;;;;;;12.05;6.47;;;;;;;5.70;35.76;100100.75;1088434;54;20022;-83
2022/03/12 02:53:58;;;;;;;10.25;6.78;;;;;;;5.74;35.84;100097.75;1088424;54;20026;-83
2022/03/12 02:55:05;;;;;;;10.18;6.78;;;;;;;5.73;35.79;100104.00;1088508;54;20015;-84
2022/03/12 02:56:09;;;;;;;9.02;6.50;;;;;;;5.75;35.93;100104.75;1088351;54;20022;-84
2022/03/12 02:57:11;;;;;;;10.32;6.20;;;;;;;5.80;35.63;100099.09;1088368;54;20019;-83
2022/03/12 02:58:17;;;;;;;10.55;6.53;;;;;;;5.76;35.77;100098.47;1089638;46;20057;-84
2022/03/12 02:59:18;;;;;;;8.25;5.88;;;;;;;5.83;35.66;100092.72;1088120;54;20083;-84
2022/03/12 03:00:23;;;;;;;8.73;6.00;;;;;;;5.86;35.70;100097.78;1088213;54;20022;-82
2022/03/12 03:01:26;;;;;;;11.43;6.95;;;;;;;5.92;35.66;100105.31;1088134;54;20030;-84
2022/03/12 03:02:38;;;;;;;10.38;6.63;;;;;;;5.94;35.29;100098.91;1088448;39;20531;-83
2022/03/12 03:03:42;;;;;;;9.77;6.53;;;;;;;5.94;35.42;100106.88;1088174;54;20614;-82
2022/03/12 03:04:45;;;;;;;10.65;6.30;;;;;;;5.96;35.48;100106.75;1088179;54;20042;-84
2022/03/12 03:05:54;;;;;;;8.32;5.75;;;;;;;5.98;35.43;100109.31;1088272;54;20019;-83
2022/03/12 03:06:56;;;;;;;9.05;5.68;;;;;;;5.98;35.40;100110.16;1088199;54;20078;-84
2022/03/12 03:08:04;;;;;;;11.13;5.57;;;;;;;5.96;35.51;100106.75;1088287;54;20038;-84
2022/03/12 03:09:06;;;;;;;9.95;5.90;;;;;;;5.91;35.61;100114.22;1088075;54;20057;-84
2022/03/12 03:10:34;;;;;;;11.18;6.57;;;;;;;5.83;35.65;100114.78;1087785;54;20037;-82
2022/03/12 03:11:39;;;;;;;8.77;5.85;;;;;;;5.78;35.87;100109.81;1087376;46;20037;-79
2022/03/12 03:12:45;;;;;;;10.35;6.45;;;;;;;5.80;35.83;100116.81;1087098;54;20038;-80
2022/03/12 03:13:50;;;;;;;9.80;6.43;;;;;;;5.85;35.52;100114.69;1086716;54;20038;-79
2022/03/12 03:14:52;;;;;;;9.20;6.43;;;;;;;5.83;35.44;100113.94;1086661;54;20034;-78
2022/03/12 03:15:59;;;;;;;9.20;6.35;;;;;;;5.86;35.51;100114.56;1087793;39;20440;-79
2022/03/12 03:17:06;;;;;;;9.93;6.30;;;;;;;5.77;35.63;100116.06;1086657;54;20065;-81
2022/03/12 03:18:09;;;;;;;12.10;7.32;;;;;;;5.74;35.69;100120.75;1086595;54;20560;-81
2022/03/12 03:19:14;;;;;;;10.35;6.60;;;;;;;5.70;35.77;100119.31;1086508;54;20050;-80
2022/03/12 03:20:16;;;;;;;11.93;6.50;;;;;;;5.73;35.72;100121.72;1087345;54;20074;-82
2022/03/12 03:21:22;;;;;;;9.73;6.00;;;;;;;5.79;35.67;100118.63;1087783;54;20042;-81
2022/03/12 03:22:23;;;;;;;10.75;7.00;;;;;;;5.76;35.73;100122.34;1088182;54;20042;-84
2022/03/12 03:23:30;;;;;;;9.70;6.68;;;;;;;5.74;35.69;100118.97;1088216;54;20089;-83
2022/03/12 03:24:35;;;;;;;12.80;6.65;;;;;;;5.72;35.72;100126.19;1093267;39;20554;-83
2022/03/12 03:25:40;;;;;;;11.18;7.15;;;;;;;5.68;35.86;100123.88;1088274;54;20050;-80
2022/03/12 03:26:57;;;;;;;11.18;7.00;;;;;;;5.60;35.79;100127.06;1087903;54;20599;-79
2022/03/12 03:27:59;;;;;;;10.82;6.82;;;;;;;5.64;35.89;100120.59;1087886;54;20019;-81
2022/03/12 03:29:03;;;;;;;9.07;6.45;;;;;;;5.59;35.78;100134.19;1087501;54;20439;-80
2022/03/12 03:30:10;;;;;;;11.15;7.13;;;;;;;5.59;35.76;100135.97;1087369;54;20042;-79
2022/03/12 03:31:11;;;;;;;11.15;6.55;;;;;;;5.56;35.86;100130.91;1087462;54;20034;-81
2022/03/12 03:32:17;;;;;;;13.52;6.78;;;;;;;5.54;36.03;100132.81;1089834;39;20592;-81
2022/03/12 03:33:22;;;;;;;13.23;7.18;;;;;;;5.50;36.17;100133.97;1087695;54;20042;-79
2022/03/12 03:34:27;;;;;;;9.45;6.78;;;;;;;5.50;36.06;100131.34;1087580;54;20074;-82
2022/03/12 03:35:32;;;;;;;9.55;6.50;;;;;;;5.47;36.34;100133.28;1087376;54;20038;-80
2022/03/12 03:36:37;;;;;;;11.35;6.85;;;;;;;5.50;35.93;100133.97;1087550;54;20686;-79
2022/03/12 03:37:44;;;;;;;11.20;7.00;;;;;;;5.53;35.87;100141.72;1092119;46;20053;-81
2022/03/12 03:38:48;;;;;;;9.60;6.53;;;;;;;5.56;35.89;100138.88;1087305;54;20038;-79
2022/03/12 03:39:57;;;;;;;9.93;6.20;;;;;;;5.56;36.04;100138.88;1087062;54;20042;-79
2022/03/12 03:41:09;;;;;;;10.70;6.82;;;;;;;5.62;36.00;100147.22;1087575;54;20031;-81
2022/03/12 03:42:22;;;;;;;8.63;6.10;;;;;;;5.65;36.04;100140.84;1087313;54;20552;-78
2022/03/12 03:43:25;;;;;;;9.73;6.25;;;;;;;5.71;35.67;100148.38;1087988;54;20034;-81
2022/03/12 03:44:31;;;;;;;8.32;5.47;;;;;;;5.72;35.99;100147.41;1087806;54;20038;-80
2022/03/12 03:45:33;;;;;;;7.95;5.50;;;;;;;5.73;35.94;100148.25;1087841;54;20054;-81
2022/03/12 03:46:38;;;;;;;8.27;5.60;;;;;;;5.72;36.18;100151.84;1087719;54;20019;-81
2022/03/12 03:47:40;;;;;;;7.72;5.50;;;;;;;5.75;36.11;100157.81;1087615;54;20050;-80
2022/03/12 03:48:44;;;;;;;9.00;5.75;;;;;;;5.75;36.27;100157.81;1087541;54;20930;-83
2022/03/12 03:49:48;;;;;;;9.30;5.60;;;;;;;5.75;36.27;100154.28;1087057;54;20038;-81
2022/03/12 03:50:52;;;;;;;8.32;5.60;;;;;;;5.78;36.29;100149.59;1089016;46;20687;-82
2022/03/12 03:51:58;;;;;;;9.18;6.03;;;;;;;5.77;36.18;100147.91;1087663;54;20050;-81
2022/03/12 03:53:03;;;;;;;10.30;6.13;;;;;;;5.77;36.20;100155.03;1087267;54;20687;-79
2022/03/12 03:54:09;;;;;;;9.35;5.55;;;;;;;5.80;36.29;100154.81;1087221;54;20050;-79
2022/03/12 03:55:11;;;;;;;10.20;6.47;;;;;;;5.76;36.50;100148.88;1086680;54;20082;-79
2022/03/12 03:56:18;;;;;;;8.45;5.50;;;;;;;5.75;36.51;100157.81;1086647;54;20057;-81
2022/03/12 03:57:21;;;;;;;9.90;5.55;;;;;;;5.74;36.59;100149.94;1086872;54;20038;-79
2022/03/12 03:58:37;;;;;;;9.50;6.50;;;;;;;5.72;36.78;100154.50;1088584;46;20106;-82
2022/03/12 03:59:39;;;;;;;9.65;6.30;;;;;;;5.70;36.47;100159.94;1087414;54;20618;-80
2022/03/12 04:00:58;;;;;;;9.38;5.85;;;;;;;5.69;36.60;100162.69;1087277;54;20027;-82
2022/03/12 04:02:06;;;;;;;21.63;6.85;;;;;;;5.66;36.30;100160.25;1087254;54;20669;-82
2022/03/12 04:03:11;;;;;;;10.63;6.13;;;;;;;5.65;36.37;100166.53;1087486;54;20058;-80
2022/03/12 04:04:13;;;;;;;9.70;6.22;;;;;;;5.61;36.33;100161.44;1086830;54;20050;-81
2022/03/12 04:05:17;;;;;;;10.38;6.10;;;;;;;5.58;36.39;100166.09;1086487;54;20041;-80
2022/03/12 04:06:25;;;;;;;9.15;6.68;;;;;;;5.56;36.44;100163.56;1087709;47;20142;-80
2022/03/12 04:07:29;;;;;;;10.43;6.43;;;;;;;5.53;36.53;100168.25;1086751;54;20133;-78
2022/03/12 04:08:32;;;;;;;12.18;6.95;;;;;;;5.54;36.69;100169.94;1086448;54;20065;-78
2022/03/12 04:09:37;;;;;;;10.23;6.35;;;;;;;5.50;36.46;100168.47;1086584;54;20038;-79
2022/03/12 04:10:45;;;;;;;10.50;6.30;;;;;;;5.45;36.72;100161.69;1087320;54;20022;-79
2022/03/12 04:11:52;;;;;;;11.02;6.82;;;;;;;5.41;37.19;100165.50;1086779;39;20742;-80
2022/03/12 04:12:54;;;;;;;10.75;6.85;;;;;;;5.49;37.09;100161.47;1087029;54;20049;-81
2022/03/12 04:14:00;;;;;;;9.73;6.28;;;;;;;5.51;37.26;100167.50;1086386;54;20041;-79
2022/03/12 04:15:03;;;;;;;10.82;6.65;;;;;;;5.51;37.41;100167.50;1086405;54;20065;-79
2022/03/12 04:16:07;;;;;;;11.50;6.32;;;;;;;5.49;37.68;100172.06;1087929;54;20080;-81
2022/03/12 04:17:09;;;;;;;8.93;5.82;;;;;;;5.50;37.78;100174.63;1087850;54;20027;-81
2022/03/12 04:18:15;;;;;;;11.55;6.30;;;;;;;5.48;37.92;100168.56;1088387;54;20034;-84
2022/03/12 04:24:05;;;;;;;9.02;5.50;;;;;;;5.52;38.10;100175.38;1088657;54;20038;-82
2022/03/12 04:25:14;;;;;;;9.43;6.00;;;;;;;5.49;38.50;100174.72;1088710;54;20042;-85
2022/03/12 04:26:19;;;;;;;10.35;6.32;;;;;;;5.40;38.81;100166.47;1088781;54;20027;-84
2022/03/12 04:27:34;;;;;;;9.88;6.10;;;;;;;5.38;38.83;100171.06;1088690;54;20034;-83
2022/03/12 04:28:43;;;;;;;10.32;5.82;;;;;;;5.33;38.91;100162.56;1088692;54;20042;-81
2022/03/12 04:29:45;;;;;;;9.70;6.15;;;;;;;5.32;38.81;100166.16;1088374;54;20057;-79
2022/03/12 04:30:51;;;;;;;8.35;5.68;;;;;;;5.36;38.68;100169.44;1088366;54;20038;-79
2022/03/12 04:31:55;;;;;;;11.25;6.60;;;;;;;5.36;38.61;100172.94;1088328;54;20054;-80
2022/03/12 04:33:04;;;;;;;10.13;5.47;;;;;;;5.35;38.82;100171.25;1088430;54;20034;-80
2022/03/12 04:34:08;;;;;;;9.80;5.78;;;;;;;5.38;38.49;100176.34;1088575;54;20061;-80
2022/03/12 04:35:11;;;;;;;8.07;5.47;;;;;;;5.39;38.58;100177.19;1088613;54;20031;-82
2022/03/12 04:36:15;;;;;;;9.48;6.55;;;;;;;5.43;38.34;100178.69;1088433;54;20054;-80
2022/03/12 04:37:39;;;;;;;8.32;5.38;;;;;;;5.41;38.60;100176.13;1088480;54;20038;-80
2022/03/12 04:38:41;;;;;;;8.70;5.70;;;;;;;5.39;38.41;100178.03;1088476;54;20038;-82
2022/03/12 04:39:50;;;;;;;8.50;5.50;;;;;;;5.42;38.25;100175.16;1103934;39;20523;-82
2022/03/12 04:41:02;;;;;;;9.95;6.50;;;;;;;5.35;38.39;100181.84;1088326;54;20058;-81
2022/03/12 04:42:05;;;;;;;9.90;6.50;;;;;;;5.33;38.61;100173.16;1088251;54;20033;-79
2022/03/12 04:43:22;;;;;;;9.98;6.32;;;;;;;5.31;38.77;100177.72;1088312;54;20544;-78
2022/03/12 04:44:24;;;;;;;9.25;6.20;;;;;;;5.26;38.63;100179.84;1092989;39;20517;-83
2022/03/12 04:45:31;;;;;;;9.23;6.50;;;;;;;5.28;38.63;100193.84;1088645;54;20018;-82
2022/03/12 06:15:05;;;;;;;9.95;6.43;;;;;;;4.46;39.03;100279.63;1088160;54;20115;-88
2022/03/12 06:16:12;;;;;;;;;;;;;;;4.45;39.24;100287.69;1088608;54;20038;-85
2022/03/12 06:17:14;;;;;;;9.30;6.07;;;;;;;4.49;39.12;100284.75;1088587;54;19930;-83
2022/03/12 06:18:19;;;;;;;8.65;5.57;;;;;;;4.54;38.87;100295.03;1088499;54;20034;-84
2022/03/12 06:19:24;;;;;;;10.10;5.72;;;;;;;4.59;39.04;100289.44;1088567;54;20031;-84
2022/03/12 06:20:27;;;;;;;12.38;6.88;;;;;;;4.62;39.11;100282.13;1088524;54;20071;-82
2022/03/12 06:21:31;;;;;;;9.88;6.07;;;;;;;4.68;39.01;100288.84;1093646;46;20681;-84
2022/03/12 06:22:37;;;;;;;9.18;5.68;;;;;;;4.74;39.21;100291.06;1088420;54;20019;-84
2022/03/12 06:23:41;;;;;;;11.27;6.15;;;;;;;4.77;38.92;100290.88;1088365;54;20038;-84
2022/03/12 06:24:46;;;;;;;12.38;7.00;;;;;;;4.64;39.40;100288.19;1088239;54;20034;-83
2022/03/12 06:25:50;;;;;;;10.65;6.32;;;;;;;4.59;39.44;100294.72;1088396;54;20038;-83
2022/03/12 06:26:52;;;;;;;11.75;6.80;;;;;;;4.49;39.57;100290.03;1088061;54;20058;-79
2022/03/12 06:27:56;;;;;;;21.33;8.18;;;;;;;4.46;39.61;100298.16;1088112;54;20143;-81
2022/03/12 06:29:10;;;;;;;13.65;7.57;;;;;;;4.48;39.32;100300.75;1088317;54;20050;-84
2022/03/12 06:30:16;;;;;;;10.57;6.97;;;;;;;4.49;39.40;100297.97;1088134;54;20030;-81
2022/03/12 06:31:21;;;;;;;11.48;6.88;;;;;;;4.47;39.47;100302.53;1088010;54;20040;-82
2022/03/12 06:32:25;;;;;;;10.32;6.28;;;;;;;4.41;39.55;100292.34;1087641;54;20015;-80
2022/03/12 06:33:27;;;;;;;14.13;7.35;;;;;;;4.36;39.65;100294.41;1088044;54;20018;-81
2022/03/12 06:34:34;;;;;;;11.25;7.18;;;;;;;4.36;39.85;100297.06;1087888;54;20045;-83
2022/03/12 06:35:40;;;;;;;11.32;6.57;;;;;;;4.36;39.65;100289.13;1088344;54;20038;-83
2022/03/12 06:36:44;;;;;;;12.57;6.88;;;;;;;4.38;39.84;100295.16;1089088;46;20063;-83
2022/03/12 06:37:48;;;;;;;14.30;6.95;;;;;;;4.36;39.78;100299.72;1088309;54;20026;-82
2022/03/12 06:38:50;;;;;;;13.27;6.70;;;;;;;4.40;39.76;100295.94;1088389;54;20018;-84